Time;durP1;ratioP1;P1;durP2;ratioP2;P2;SDS_P1;SDS_P2;PMS_P1;PMS_P2;Temp;Humidity;BMP_temperature;BMP_pressure;BME280_temperature;BME280_humidity;BME280_pressure;Samples;Min_cycle;Max_cycle;Signal;HPM_P1;HPM_P2
2023/10/22 00:01:04;;;;;;;34.13;28.23;;;18.70;99.90;;;;;;5068993;28;20040;-66
2023/10/22 00:03:30;;;;;;;31.67;28.27;;;18.80;1.00;;;;;;5069124;28;20519;-65
2023/10/22 00:05:55;;;;;;;31.75;28.30;;;18.80;1.00;;;;;;5068770;28;20523;-65
2023/10/22 00:08:21;;;;;;;31.48;28.10;;;18.50;1.00;;;;;;5069615;28;20508;-65
2023/10/22 00:10:46;;;;;;;31.27;27.98;;;18.40;1.00;;;;;;5065781;28;20526;-66
2023/10/22 00:13:12;;;;;;;31.08;27.88;;;19.10;20.20;;;;;;5068671;28;20489;-66
2023/10/22 00:15:38;;;;;;;32.28;28.90;;;18.70;54.10;;;;;;5068483;28;20037;-66
2023/10/22 00:18:03;;;;;;;32.22;27.95;;;18.70;99.90;;;;;;5068693;28;20493;-66
2023/10/22 00:20:30;;;;;;;31.48;28.05;;;18.60;99.90;;;;;;5068836;28;20061;-66
2023/10/22 00:22:55;;;;;;;31.80;28.45;;;18.70;99.90;;;;;;5067886;28;20127;-66
2023/10/22 00:25:21;;;;;;;36.70;28.88;;;18.40;1.00;;;;;;5069368;28;20154;-65
2023/10/22 00:27:47;;;;;;;34.53;28.70;;;18.50;1.00;;;;;;5068985;28;20051;-66
2023/10/22 00:30:12;;;;;;;32.22;28.67;;;18.60;1.00;;;;;;5067572;28;20048;-66
2023/10/22 00:32:38;;;;;;;32.03;28.63;;;18.60;1.00;;;;;;5083382;28;20498;-66
2023/10/22 00:35:04;;;;;;;33.80;30.20;;;18.30;1.00;;;;;;5054213;28;20398;-67
2023/10/22 00:37:29;;;;;;;33.92;30.38;;;18.60;64.30;;;;;;5057322;28;20137;-66
2023/10/22 00:39:55;;;;;;;37.42;30.02;;;18.50;99.90;;;;;;5059616;28;20044;-65
2023/10/22 00:42:20;;;;;;;33.85;30.05;;;18.50;99.90;;;;;;5058238;28;20421;-66
2023/10/22 00:44:46;;;;;;;33.38;29.85;;;18.50;1.00;;;;;;5068166;28;20736;-66
2023/10/22 00:47:15;;;;;;;32.70;29.35;;;18.00;11.10;;;;;;5058394;28;20040;-66
2023/10/22 00:49:42;;;;;;;34.55;30.85;;;18.10;99.90;;;;;;5068212;28;20048;-66
2023/10/22 00:52:07;;;;;;;36.70;30.85;;;18.50;99.90;;;;;;5066449;28;20072;-66
2023/10/22 00:54:34;;;;;;;32.42;29.23;;;17.90;35.70;;;;;;5068377;28;20070;-66
2023/10/22 00:56:59;;;;;;;31.58;28.55;;;18.20;99.90;;;;;;5067530;28;20052;-66
2023/10/22 00:59:25;;;;;;;33.13;29.70;;;17.90;99.90;;;;;;5068324;28;20037;-66
2023/10/22 01:01:51;;;;;;;33.28;30.13;;;18.40;99.90;;;;;;5067535;28;20525;-66
2023/10/22 01:04:16;;;;;;;31.98;28.70;;;18.30;1.00;;;;;;5068068;28;20044;-65
2023/10/22 01:06:42;;;;;;;33.13;29.83;;;18.70;1.00;;;;;;5067890;28;20068;-66
2023/10/22 01:09:10;;;;;;;32.92;29.38;;;18.20;1.00;;;;;;5065902;28;20063;-66
2023/10/22 01:11:37;;;;;;;31.33;28.30;;;18.50;1.00;;;;;;5060529;28;20553;-66
2023/10/22 01:14:03;;;;;;;32.70;29.67;;;18.00;36.30;;;;;;5054969;28;20036;-66
2023/10/22 01:16:29;;;;;;;33.25;29.90;;;18.60;99.90;;;;;;5067948;28;20070;-63
2023/10/22 01:18:55;;;;;;;32.22;29.17;;;17.90;99.90;;;;;;5067582;28;20036;-62
2023/10/22 01:21:23;;;;;;;32.70;29.55;;;17.90;99.90;;;;;;5064093;28;20059;-65
2023/10/22 01:23:49;;;;;;;32.78;29.63;;;17.90;99.90;;;;;;5047954;28;20067;-63
2023/10/22 01:26:14;;;;;;;32.55;29.33;;;18.10;99.90;;;;;;5059989;28;20036;-62
2023/10/22 01:28:40;;;;;;;32.45;29.20;;;18.00;1.00;;;;;;5067807;28;20558;-62
2023/10/22 01:31:10;;;;;;;33.15;30.10;;;17.80;1.00;;;;;;5067284;28;20087;-63
2023/10/22 01:33:36;;;;;;;33.08;30.05;;;18.60;1.00;;;;;;5066250;28;20146;-63
2023/10/22 01:36:02;;;;;;;32.70;29.75;;;18.50;56.10;;;;;;5066876;28;20045;-63
2023/10/22 01:38:27;;;;;;;32.30;29.42;;;18.50;99.90;;;;;;5067549;28;20037;-62
2023/10/22 01:40:53;;;;;;;31.20;28.15;;;18.10;99.90;;;;;;5061402;28;20554;-63
2023/10/22 01:43:19;;;;;;;31.73;28.40;;;17.90;99.90;;;;;;5066563;28;20505;-63
2023/10/22 01:45:45;;;;;;;32.55;29.20;;;18.60;99.90;;;;;;5067251;28;20554;-63
2023/10/22 01:48:10;;;;;;;32.55;29.40;;;18.40;99.90;;;;;;5065997;28;20055;-63
2023/10/22 01:50:36;;;;;;;31.77;28.88;;;19.00;1.00;;;;;;5067576;28;20048;-63
2023/10/22 01:53:02;;;;;;;32.90;29.52;;;18.10;1.00;;;;;;5057352;28;20033;-63
2023/10/22 01:55:27;;;;;;;31.83;28.75;;;17.90;42.60;;;;;;5047599;28;20033;-63
2023/10/22 01:57:53;;;;;;;31.80;28.88;;;17.90;99.90;;;;;;5047102;28;20131;-62
2023/10/22 02:00:18;;;;;;;31.13;28.27;;;18.20;99.90;;;;;;5063738;28;20040;-62
2023/10/22 02:02:44;;;;;;;30.95;28.15;;;18.70;99.90;;;;;;5066737;28;20048;-63
2023/10/22 02:05:09;;;;;;;30.65;28.13;;;18.50;99.90;;;;;;5067171;28;20040;-62
2023/10/22 02:07:39;;;;;;;31.00;28.30;;;17.90;99.90;;;;;;5067476;28;20044;-62
2023/10/22 02:10:06;;;;;;;32.22;29.52;;;18.30;99.90;;;;;;5066722;28;20387;-62
2023/10/22 02:12:31;;;;;;;30.67;27.85;;;17.90;1.00;;;;;;5065941;28;20562;-62
2023/10/22 02:14:57;;;;;;;30.77;28.17;;;18.50;1.00;;;;;;5065633;28;20256;-62
2023/10/22 02:17:23;;;;;;;33.13;30.33;;;17.90;1.00;;;;;;5082630;28;20033;-64
2023/10/22 02:19:48;;;;;;;30.92;28.35;;;18.00;58.40;;;;;;5099347;28;20057;-63
2023/10/22 02:22:16;;;;;;;30.70;28.10;;;17.90;98.50;;;;;;5063538;28;20047;-63
2023/10/22 02:24:42;;;;;;;29.88;27.45;;;18.00;99.90;;;;;;5056163;28;20161;-62
2023/10/22 02:27:07;;;;;;;30.30;27.73;;;18.80;99.90;;;;;;5050985;28;20049;-67
2023/10/22 02:29:33;;;;;;;29.63;27.05;;;17.80;99.90;;;;;;5066878;28;20082;-67
2023/10/22 02:31:59;;;;;;;30.88;28.35;;;18.10;99.90;;;;;;5081557;28;20055;-67
2023/10/22 02:34:25;;;;;;;31.58;28.88;;;18.80;99.90;;;;;;5062814;28;20502;-67
2023/10/22 02:36:51;;;;;;;30.15;27.65;;;18.00;99.90;;;;;;5054429;28;20672;-67
2023/10/22 02:39:16;;;;;;;32.83;30.00;;;18.30;1.00;;;;;;5066909;28;20148;-67
2023/10/22 02:41:44;;;;;;;31.15;28.38;;;18.70;1.00;;;;;;5066160;28;20045;-67
2023/10/22 02:44:10;;;;;;;29.77;27.17;;;17.90;1.00;;;;;;5065253;28;20409;-67
2023/10/22 02:46:35;;;;;;;31.63;28.83;;;17.90;1.00;;;;;;5063990;28;20059;-67
2023/10/22 02:49:01;;;;;;;31.45;28.70;;;18.90;82.60;;;;;;5046551;28;20037;-67
2023/10/22 02:51:26;;;;;;;30.42;27.77;;;18.90;99.90;;;;;;5056770;28;20048;-67
2023/10/22 02:53:52;;;;;;;29.77;27.20;;;18.90;99.90;;;;;;5066484;28;20490;-66
2023/10/22 02:56:18;;;;;;;30.05;27.33;;;18.00;99.90;;;;;;5066310;28;20040;-67
2023/10/22 02:58:43;;;;;;;30.63;28.02;;;18.80;99.90;;;;;;5062728;28;20071;-67
2023/10/22 03:01:10;;;;;;;30.30;27.67;;;18.60;99.90;;;;;;5059380;28;20083;-67
2023/10/22 03:03:40;;;;;;;30.90;28.40;;;19.00;99.90;;;;;;5070324;28;20124;-67
2023/10/22 03:06:09;;;;;;;30.75;28.00;;;18.20;99.90;;;;;;5070671;28;20044;-67
2023/10/22 03:08:37;;;;;;;31.45;28.70;;;18.90;99.90;;;;;;5070504;28;20127;-67
2023/10/22 03:11:03;;;;;;;32.63;29.80;;;18.90;99.90;;;;;;5069224;28;20123;-67
2023/10/22 03:13:29;;;;;;;32.35;29.45;;;18.80;99.90;;;;;;5069313;28;20127;-67
2023/10/22 03:15:54;;;;;;;31.20;28.52;;;18.20;99.90;;;;;;5070662;28;20098;-66
2023/10/22 03:18:20;;;;;;;30.48;27.88;;;18.80;99.90;;;;;;5070323;28;20080;-66
2023/10/22 03:20:46;;;;;;;30.85;28.23;;;18.70;99.90;;;;;;5069646;28;20147;-67
2023/10/22 03:23:12;;;;;;;32.08;29.02;;;18.90;99.90;;;;;;5069226;28;20055;-67
2023/10/22 03:25:39;;;;;;;32.38;29.48;;;19.10;99.90;;;;;;5069709;28;20510;-67
2023/10/22 03:28:06;;;;;;;31.55;28.80;;;18.50;99.90;;;;;;5068319;28;20076;-66
2023/10/22 03:30:36;;;;;;;31.35;28.65;;;18.90;99.90;;;;;;5069492;28;20481;-66
2023/10/22 03:33:01;;;;;;;32.90;30.08;;;18.70;99.90;;;;;;5069457;28;20597;-67
2023/10/22 03:35:27;;;;;;;32.33;29.40;;;18.30;99.90;;;;;;5068925;28;20041;-66
2023/10/22 03:37:52;;;;;;;33.05;30.05;;;18.30;99.90;;;;;;5069381;28;20471;-67
2023/10/22 03:40:19;;;;;;;34.17;31.15;;;18.40;99.90;;;;;;5069349;28;20525;-67
2023/10/22 03:42:45;;;;;;;31.15;28.27;;;18.60;99.90;;;;;;5068976;28;20116;-67
2023/10/22 03:45:12;;;;;;;32.05;29.27;;;18.70;99.90;;;;;;5069421;28;20487;-66
2023/10/22 03:47:37;;;;;;;34.25;31.08;;;19.20;99.90;;;;;;5067950;28;20087;-66
2023/10/22 03:50:03;;;;;;;33.33;30.25;;;20.40;99.90;;;;;;5069067;28;20064;-66
2023/10/22 03:52:29;;;;;;;34.08;31.08;;;18.40;99.90;;;;;;5068471;28;20051;-67
2023/10/22 03:54:55;;;;;;;35.03;31.80;;;19.20;99.90;;;;;;5068087;28;20403;-66
2023/10/22 03:57:20;;;;;;;32.85;29.85;;;18.40;99.90;;;;;;5068432;28;20029;-66
2023/10/22 03:59:46;;;;;;;34.10;30.83;;;18.50;99.90;;;;;;5067829;28;20033;-67
2023/10/22 04:02:12;;;;;;;32.90;29.92;;;19.10;99.90;;;;;;5064630;28;20482;-66
2023/10/22 04:04:37;;;;;;;33.92;31.25;;;19.20;99.90;;;;;;5067288;28;20448;-67
2023/10/22 04:07:03;;;;;;;33.35;30.38;;;19.40;99.90;;;;;;5069575;28;20055;-66
2023/10/22 04:09:31;;;;;;;32.67;29.67;;;19.20;99.90;;;;;;5069006;28;20561;-67
2023/10/22 04:11:57;;;;;;;31.38;28.55;;;18.40;99.90;;;;;;5067545;28;20135;-66
2023/10/22 04:14:22;;;;;;;32.40;29.40;;;18.80;99.90;;;;;;5068980;28;20143;-66
2023/10/22 04:16:51;;;;;;;34.63;31.55;;;18.40;99.90;;;;;;5068574;28;20032;-66
2023/10/22 04:19:17;;;;;;;35.28;31.98;;;19.10;99.90;;;;;;5068866;28;20080;-66
2023/10/22 04:21:42;;;;;;;33.58;30.67;;;18.40;99.90;;;;;;5068273;28;20632;-66
2023/10/22 04:24:08;;;;;;;34.97;31.67;;;18.90;99.90;;;;;;5068098;28;20044;-66
2023/10/22 04:26:34;;;;;;;34.15;30.88;;;18.30;99.90;;;;;;5068850;28;20359;-66
2023/10/22 04:29:01;;;;;;;35.80;32.67;;;18.30;99.90;;;;;;5068930;28;20650;-66
2023/10/22 04:31:26;;;;;;;35.83;32.65;;;18.90;99.90;;;;;;5068087;28;20040;-66
2023/10/22 04:33:53;;;;;;;36.17;32.80;;;19.10;99.90;;;;;;5084094;28;20040;-66
2023/10/22 04:36:20;;;;;;;36.58;33.13;;;18.40;99.90;;;;;;5049194;28;20044;-66
2023/10/22 04:38:46;;;;;;;36.00;32.83;;;19.10;99.90;;;;;;5048548;28;20513;-66
2023/10/22 04:41:12;;;;;;;33.35;30.40;;;18.50;99.90;;;;;;5061925;28;20041;-67
2023/10/22 04:43:38;;;;;;;30.63;28.13;;;18.50;99.90;;;;;;5068372;28;20442;-67
2023/10/22 04:46:04;;;;;;;32.75;30.00;;;18.60;99.90;;;;;;5068411;28;20047;-62
2023/10/22 04:48:31;;;;;;;36.22;32.60;;;18.50;99.90;;;;;;5065970;28;20821;-63
2023/10/22 04:50:59;;;;;;;39.05;33.20;;;19.00;99.90;;;;;;5068360;28;20044;-64
2023/10/22 04:53:25;;;;;;;40.72;35.13;;;18.50;99.90;;;;;;5068577;28;20481;-62
2023/10/22 04:55:58;;;;;;;36.35;32.60;;;18.90;99.90;;;;;;5068504;28;20040;-62
2023/10/22 04:58:24;;;;;;;38.28;34.38;;;18.80;99.90;;;;;;5066570;28;20068;-63
2023/10/22 05:00:50;;;;;;;35.97;32.40;;;18.80;99.90;;;;;;5063079;28;20125;-63
2023/10/22 05:03:15;;;;;;;36.60;32.97;;;18.90;76.60;;;;;;5048879;28;20048;-62
2023/10/22 05:05:41;;;;;;;38.28;34.45;;;18.00;1.00;;;;;;5048537;28;20047;-63
2023/10/22 05:08:07;;;;;;;39.05;34.92;;;18.10;1.00;;;;;;5050483;28;20056;-63
2023/10/22 05:10:38;;;;;;;34.97;31.60;;;18.50;18.90;;;;;;5083352;28;20036;-62
2023/10/22 05:13:03;;;;;;;36.00;32.30;;;18.60;99.90;;;;;;5055776;28;20040;-63
2023/10/22 05:15:29;;;;;;;39.92;35.78;;;18.10;99.90;;;;;;5067438;28;20170;-63
2023/10/22 05:17:56;;;;;;;36.15;32.42;;;18.60;99.90;;;;;;5067565;28;20145;-62
2023/10/22 05:20:22;;;;;;;38.63;32.42;;;18.60;99.90;;;;;;5067558;28;20513;-62
2023/10/22 05:22:48;;;;;;;33.78;30.42;;;18.50;95.30;;;;;;5067043;28;20041;-62
2023/10/22 05:25:14;;;;;;;37.45;32.78;;;18.10;1.00;;;;;;5066944;28;20604;-61
2023/10/22 05:27:39;;;;;;;36.10;32.40;;;18.20;1.00;;;;;;5065229;28;20675;-62
2023/10/22 05:30:06;;;;;;;37.20;33.50;;;18.50;99.90;;;;;;5067760;28;20040;-62
2023/10/22 05:32:31;;;;;;;36.50;30.58;;;18.60;99.90;;;;;;5067205;28;20048;-63
2023/10/22 05:34:57;;;;;;;34.47;30.67;;;18.30;32.50;;;;;;5067533;28;20051;-63
2023/10/22 05:37:22;;;;;;;33.38;28.88;;;18.40;1.00;;;;;;5051035;28;20541;-62
2023/10/22 05:39:48;;;;;;;34.05;28.83;;;18.70;99.90;;;;;;5065551;28;20032;-63
2023/10/22 05:42:14;;;;;;;34.05;29.35;;;18.70;99.90;;;;;;5067214;28;20469;-62
2023/10/22 05:44:39;;;;;;;33.65;29.23;;;18.50;99.90;;;;;;5067477;28;20040;-62
2023/10/22 05:47:05;;;;;;;37.03;28.73;;;18.70;99.90;;;;;;5067004;28;20083;-64
2023/10/22 05:49:31;;;;;;;37.17;29.02;;;18.30;54.20;;;;;;5067443;28;20559;-62
2023/10/22 05:51:57;;;;;;;35.17;31.30;;;18.40;10.80;;;;;;5067211;28;20105;-63
2023/10/22 05:54:22;;;;;;;33.03;28.38;;;18.30;1.00;;;;;;5066018;28;20397;-62
2023/10/22 05:56:48;;;;;;;33.97;29.40;;;18.80;1.00;;;;;;5067105;28;20044;-66
2023/10/22 05:59:14;;;;;;;38.65;32.45;;;18.70;1.00;;;;;;5054735;28;20037;-67
2023/10/22 06:01:41;;;;;;;36.13;32.00;;;18.70;1.00;;;;;;5061679;28;20101;-66
2023/10/22 06:04:08;;;;;;;39.17;34.67;;;18.30;1.00;;;;;;5066856;28;20123;-66
2023/10/22 06:06:33;;;;;;;42.53;38.13;;;18.70;99.90;;;;;;5065674;28;20067;-66
2023/10/22 06:08:59;;;;;;;38.33;34.80;;;18.00;99.60;;;;;;5066818;28;20044;-66
2023/10/22 06:11:24;;;;;;;40.50;36.50;;;18.40;16.50;;;;;;5066103;28;20051;-66
2023/10/22 06:13:50;;;;;;;39.88;35.58;;;18.20;99.90;;;;;;5066517;28;20053;-66
2023/10/22 06:16:15;;;;;;;37.28;33.08;;;18.70;99.90;;;;;;5066633;28;20044;-66
2023/10/22 06:18:41;;;;;;;38.33;34.28;;;17.90;99.90;;;;;;5066020;28;20032;-66
2023/10/22 06:21:13;;;;;;;41.83;36.95;;;18.40;99.90;;;;;;5056900;28;20065;-66
2023/10/22 06:23:39;;;;;;;37.72;33.47;;;18.00;99.90;;;;;;5057799;28;20040;-65
2023/10/22 06:26:08;;;;;;;37.72;33.67;;;18.40;99.90;;;;;;5061651;28;20037;-66
2023/10/22 06:28:34;;;;;;;37.75;33.45;;;18.10;99.90;;;;;;5056421;28;20037;-66
2023/10/22 06:31:07;;;;;;;40.00;35.80;;;18.50;99.90;;;;;;5062358;28;20052;-67
2023/10/22 06:33:34;;;;;;;43.78;33.47;;;18.50;99.90;;;;;;5066405;28;20047;-67
2023/10/22 06:36:09;;;;;;;36.63;32.97;;;18.60;99.90;;;;;;5072418;28;20063;-66
2023/10/22 06:38:34;;;;;;;39.60;31.98;;;18.40;99.90;;;;;;5073327;28;20045;-65
2023/10/22 06:41:00;;;;;;;33.88;30.23;;;18.10;99.90;;;;;;5071688;28;20051;-66
2023/10/22 06:43:26;;;;;;;36.88;33.17;;;18.40;99.90;;;;;;5072392;28;20533;-66
2023/10/22 06:45:51;;;;;;;37.72;33.70;;;18.00;94.70;;;;;;5071926;28;20599;-66
2023/10/22 06:48:17;;;;;;;34.03;30.75;;;18.30;99.90;;;;;;5072735;28;20459;-66
2023/10/22 06:50:43;;;;;;;35.92;32.20;;;18.50;37.00;;;;;;5072165;28;20494;-66
2023/10/22 06:53:08;;;;;;;35.70;32.20;;;18.20;1.00;;;;;;5070050;28;20039;-65
2023/10/22 06:55:34;;;;;;;33.47;30.10;;;18.30;1.00;;;;;;5070035;28;20036;-67
2023/10/22 06:57:59;;;;;;;35.45;31.83;;;18.20;99.90;;;;;;5069880;28;20128;-66
2023/10/22 07:00:25;;;;;;;31.58;28.48;;;18.40;76.60;;;;;;5071899;28;20037;-67
2023/10/22 07:02:51;;;;;;;34.15;30.55;;;18.20;1.00;;;;;;5073361;28;20032;-67
2023/10/22 07:05:16;;;;;;;36.75;30.13;;;18.30;99.90;;;;;;5073656;28;20064;-66
2023/10/22 07:07:42;;;;;;;34.85;31.17;;;18.50;99.90;;;;;;5071614;28;20055;-61
2023/10/22 07:10:09;;;;;;;35.03;29.85;;;18.60;99.90;;;;;;5070532;28;20036;-64
2023/10/22 07:12:34;;;;;;;34.60;30.50;;;18.30;1.00;;;;;;5062860;28;20087;-63
2023/10/22 07:15:00;;;;;;;33.65;28.45;;;18.40;99.90;;;;;;5072920;28;20087;-63
2023/10/22 07:17:25;;;;;;;32.28;28.65;;;18.40;99.90;;;;;;5071306;28;20043;-62
2023/10/22 07:19:51;;;;;;;31.23;27.92;;;18.50;99.90;;;;;;5069607;28;20063;-65
2023/10/22 07:22:17;;;;;;;36.20;27.65;;;18.40;18.20;;;;;;5072429;28;20056;-62
2023/10/22 07:24:42;;;;;;;29.20;26.30;;;18.50;1.00;;;;;;5066529;28;20091;-62
2023/10/22 07:27:08;;;;;;;28.90;26.00;;;18.60;1.00;;;;;;5071155;28;20036;-63
2023/10/22 07:29:34;;;;;;;29.95;26.80;;;18.50;99.90;;;;;;5072849;28;20049;-61
2023/10/22 07:31:59;;;;;;;30.85;27.27;;;18.60;99.90;;;;;;5070809;28;20076;-62
2023/10/22 07:34:25;;;;;;;31.98;26.52;;;18.60;99.90;;;;;;5071785;28;20028;-63
2023/10/22 07:36:50;;;;;;;33.28;28.90;;;18.50;99.90;;;;;;5070298;28;20041;-62
2023/10/22 07:39:16;;;;;;;29.15;26.10;;;18.60;94.50;;;;;;5068846;28;20094;-62
2023/10/22 07:41:41;;;;;;;32.67;27.85;;;18.70;82.10;;;;;;5067051;28;20044;-62
2023/10/22 07:44:07;;;;;;;31.77;27.67;;;18.50;56.40;;;;;;5070432;28;20032;-63
2023/10/22 07:46:33;;;;;;;31.02;27.70;;;18.70;3.60;;;;;;5081405;28;20071;-61
2023/10/22 07:48:59;;;;;;;29.90;26.75;;;18.80;1.00;;;;;;5068591;28;20540;-61
2023/10/22 07:51:26;;;;;;;29.25;26.23;;;18.60;1.00;;;;;;5067210;28;20048;-62
2023/10/22 07:53:52;;;;;;;29.13;25.98;;;18.80;1.00;;;;;;5081022;28;20045;-63
2023/10/22 07:56:18;;;;;;;27.35;24.42;;;18.80;1.00;;;;;;5067654;28;20048;-63
2023/10/22 07:58:43;;;;;;;25.58;23.17;;;18.70;99.90;;;;;;5069973;28;20119;-62
2023/10/22 08:01:09;;;;;;;24.90;21.45;;;18.80;99.90;;;;;;5070679;28;20139;-62
2023/10/22 08:03:35;;;;;;;28.15;25.50;;;18.80;99.90;;;;;;5067434;28;20052;-63
2023/10/22 08:06:03;;;;;;;23.67;21.58;;;18.70;3.10;;;;;;5068587;28;20037;-63
2023/10/22 08:08:29;;;;;;;24.38;21.95;;;18.80;1.00;;;;;;5069015;28;20083;-64
2023/10/22 08:10:59;;;;;;;23.35;21.05;;;18.90;1.00;;;;;;5066521;28;20044;-62
2023/10/22 08:13:25;;;;;;;26.42;23.92;;;18.80;99.90;;;;;;5067952;28;20089;-63
2023/10/22 08:15:51;;;;;;;28.95;26.23;;;18.70;99.90;;;;;;5069163;28;20107;-64
2023/10/22 08:18:17;;;;;;;27.95;25.42;;;18.70;99.90;;;;;;5059732;28;20032;-62
2023/10/22 08:20:42;;;;;;;26.58;24.30;;;18.60;99.90;;;;;;5067393;28;20066;-63
2023/10/22 08:23:08;;;;;;;26.50;23.85;;;18.70;99.90;;;;;;5068095;28;20537;-62
2023/10/22 08:25:34;;;;;;;26.80;24.20;;;18.60;99.90;;;;;;5064139;28;20037;-62
2023/10/22 08:28:00;;;;;;;26.38;23.98;;;18.70;99.90;;;;;;5066002;28;20063;-63
2023/10/22 08:30:27;;;;;;;24.25;22.20;;;18.70;99.90;;;;;;5068275;28;20506;-64
2023/10/22 08:32:52;;;;;;;25.88;23.30;;;18.70;99.90;;;;;;5069579;28;20044;-62
2023/10/22 08:35:18;;;;;;;26.35;23.90;;;18.90;99.90;;;;;;5068281;28;20036;-62
2023/10/22 08:37:46;;;;;;;27.48;23.55;;;18.90;99.90;;;;;;5064670;28;20040;-63
2023/10/22 08:40:12;;;;;;;21.77;19.67;;;18.90;99.90;;;;;;5067778;28;20072;-62
2023/10/22 08:42:39;;;;;;;21.75;19.58;;;18.80;99.90;;;;;;5068151;28;20411;-61
2023/10/22 08:45:07;;;;;;;22.30;20.10;;;18.90;99.90;;;;;;5067420;28;20040;-62
2023/10/22 08:47:34;;;;;;;20.50;18.55;;;19.00;99.90;;;;;;5067789;28;20036;-61
2023/10/22 08:50:01;;;;;;;19.92;18.08;;;19.00;70.80;;;;;;5065647;28;20134;-62
2023/10/22 08:52:27;;;;;;;16.35;14.68;;;19.20;99.90;;;;;;5068359;28;20657;-63
2023/10/22 08:54:53;;;;;;;17.42;15.82;;;19.30;99.90;;;;;;5065959;28;20049;-63
2023/10/22 08:57:21;;;;;;;14.57;13.18;;;19.50;99.90;;;;;;5067073;28;20604;-62
2023/10/22 08:59:47;;;;;;;13.60;12.18;;;19.50;36.30;;;;;;5066452;28;20041;-62
2023/10/22 09:02:21;;;;;;;14.45;13.00;;;19.60;1.00;;;;;;5067095;28;20040;-62
2023/10/22 09:04:47;;;;;;;13.32;11.90;;;20.20;1.00;;;;;;5067575;28;20184;-63
2023/10/22 09:07:13;;;;;;;19.48;13.73;;;19.80;1.00;;;;;;5066782;28;20130;-63
2023/10/22 09:09:39;;;;;;;17.92;16.27;;;19.80;1.00;;;;;;5066624;28;20083;-63
2023/10/22 09:12:08;;;;;;;15.48;12.30;;;19.70;1.00;;;;;;5067672;28;20078;-63
2023/10/22 09:14:34;;;;;;;14.63;13.10;;;19.50;1.00;;;;;;5067408;28;20037;-62
2023/10/22 09:17:19;;;;;;;15.68;14.30;;;19.50;1.00;;;;;;5066331;28;20048;-62
2023/10/22 09:19:48;;;;;;;14.75;13.25;;;19.30;99.90;;;;;;5064120;28;20484;-63
2023/10/22 09:22:27;;;;;;;12.25;11.20;;;19.40;1.00;;;;;;5066536;28;20052;-61
2023/10/22 09:24:56;;;;;;;14.27;12.85;;;19.40;99.90;;;;;;5061164;28;20511;-63
2023/10/22 09:27:23;;;;;;;12.38;11.30;;;19.50;99.90;;;;;;5061896;28;20044;-66
2023/10/22 09:29:49;;;;;;;11.98;10.43;;;19.50;99.90;;;;;;5067463;28;20713;-67
2023/10/22 09:32:14;;;;;;;13.80;12.25;;;19.70;99.90;;;;;;5065987;28;20049;-65
2023/10/22 09:34:40;;;;;;;14.98;11.77;;;19.60;99.90;;;;;;5065711;28;20394;-67
2023/10/22 09:37:06;;;;;;;12.18;10.98;;;19.70;99.90;;;;;;5061727;28;20402;-66
2023/10/22 09:39:51;;;;;;;13.82;12.52;;;19.60;99.90;;;;;;5066492;28;20039;-67
2023/10/22 09:42:17;;;;;;;15.68;12.35;;;19.60;99.90;;;;;;5064904;28;20552;-68
2023/10/22 09:44:46;;;;;;;14.50;11.77;;;19.70;99.90;;;;;;5067259;28;20041;-67
2023/10/22 09:47:20;;;;;;;14.13;12.18;;;19.80;99.90;;;;;;5064098;28;20461;-67
2023/10/22 09:49:50;;;;;;;14.80;9.85;;;19.60;99.90;;;;;;5066041;28;20072;-66
2023/10/22 09:52:17;;;;;;;9.95;9.13;;;19.50;99.90;;;;;;5062242;28;20044;-67
2023/10/22 09:54:45;;;;;;;11.63;9.18;;;19.50;99.90;;;;;;5066877;28;20078;-67
2023/10/22 09:57:16;;;;;;;12.25;11.25;;;19.50;99.90;;;;;;5066732;28;20102;-67
2023/10/22 09:59:43;;;;;;;13.93;12.43;;;19.50;99.90;;;;;;5063962;28;20036;-67
2023/10/22 10:02:13;;;;;;;14.40;12.93;;;19.70;99.90;;;;;;5064569;28;20461;-67
2023/10/22 10:04:40;;;;;;;14.55;13.20;;;19.90;99.90;;;;;;5066160;28;20674;-67
2023/10/22 10:07:06;;;;;;;14.57;8.90;;;20.20;99.90;;;;;;5066311;28;20467;-67
2023/10/22 10:09:34;;;;;;;13.48;10.27;;;20.30;99.90;;;;;;5065435;28;20111;-67
2023/10/22 10:12:02;;;;;;;13.45;12.07;;;20.40;99.90;;;;;;5063471;28;20032;-67
2023/10/22 10:14:44;;;;;;;13.55;12.20;;;20.40;99.90;;;;;;5059914;28;20860;-67
2023/10/22 10:17:10;;;;;;;12.93;11.73;;;20.30;99.90;;;;;;5066601;28;20446;-67
2023/10/22 10:19:37;;;;;;;13.35;11.98;;;20.80;99.90;;;;;;5067958;28;20060;-67
2023/10/22 10:22:03;;;;;;;12.35;11.15;;;20.20;99.90;;;;;;5066469;28;20083;-67
2023/10/22 10:24:30;;;;;;;14.40;12.68;;;20.20;99.90;;;;;;5066277;28;20217;-67
2023/10/22 10:26:56;;;;;;;15.35;13.52;;;20.70;99.90;;;;;;5059845;28;20043;-67
2023/10/22 10:29:32;;;;;;;13.38;11.95;;;19.90;99.90;;;;;;5066217;28;20107;-67
2023/10/22 10:32:21;;;;;;;15.57;13.73;;;19.80;99.90;;;;;;5067423;28;20372;-67
2023/10/22 10:34:48;;;;;;;16.88;15.45;;;19.60;99.90;;;;;;5057967;28;20472;-66
2023/10/22 10:37:17;;;;;;;15.85;13.90;;;19.70;99.90;;;;;;5066184;28;20101;-67
2023/10/22 10:39:52;;;;;;;14.05;12.65;;;20.20;99.90;;;;;;5066214;28;20044;-67
2023/10/22 10:42:30;;;;;;;16.45;15.05;;;19.90;99.90;;;;;;5066795;28;20118;-67
2023/10/22 10:44:59;;;;;;;13.77;12.50;;;20.00;99.90;;;;;;5065724;28;20101;-67
2023/10/22 10:47:24;;;;;;;12.32;11.32;;;20.10;99.90;;;;;;5064587;28;20044;-70
2023/10/22 10:50:17;;;;;;;11.90;10.77;;;20.10;99.90;;;;;;5060643;28;20064;-67
2023/10/22 10:52:46;;;;;;;13.50;12.32;;;20.00;99.90;;;;;;5064395;28;20113;-66
2023/10/22 10:55:14;;;;;;;14.00;12.90;;;19.90;99.90;;;;;;5055965;28;20040;-66
2023/10/22 10:57:42;;;;;;;12.00;11.10;;;19.90;99.90;;;;;;5065690;28;20059;-65
2023/10/22 11:00:09;;;;;;;13.10;11.90;;;19.90;99.90;;;;;;5066147;28;20036;-66
2023/10/22 11:02:51;;;;;;;11.02;10.13;;;19.80;99.90;;;;;;5065230;28;20037;-66
2023/10/22 11:05:38;;;;;;;12.10;10.98;;;19.70;99.90;;;;;;5062516;28;20048;-65
2023/10/22 11:08:15;;;;;;;;;;;19.70;99.90;;;;;;5065318;28;20056;-66
2023/10/22 11:10:41;;;;;;;12.02;11.15;;;19.70;99.90;;;;;;5065590;28;19920;-65
2023/10/22 11:13:08;;;;;;;11.43;10.45;;;19.80;99.90;;;;;;5079286;28;20045;-66
2023/10/22 11:15:36;;;;;;;14.45;13.00;;;19.80;99.90;;;;;;5063766;28;20047;-65
2023/10/22 11:18:04;;;;;;;11.38;10.40;;;20.00;99.90;;;;;;5064195;28;20051;-66
2023/10/22 11:20:30;;;;;;;12.75;11.65;;;20.00;99.90;;;;;;5060675;28;20486;-65
2023/10/22 11:22:57;;;;;;;12.38;10.70;;;20.10;99.90;;;;;;5069331;28;20045;-66
2023/10/22 11:25:23;;;;;;;11.35;10.35;;;20.50;99.90;;;;;;5081174;28;20063;-66
2023/10/22 11:27:49;;;;;;;13.25;11.88;;;20.30;99.90;;;;;;5066409;28;20379;-67
2023/10/22 11:30:36;;;;;;;10.57;9.63;;;20.50;99.90;;;;;;5065901;28;20043;-66
2023/10/22 11:33:07;;;;;;;10.90;9.85;;;20.60;99.90;;;;;;5066703;28;20148;-66
2023/10/22 11:35:33;;;;;;;9.43;8.55;;;20.60;99.90;;;;;;5066436;28;20040;-66
2023/10/22 11:37:59;;;;;;;12.80;11.77;;;20.40;99.90;;;;;;5065146;28;20483;-66
2023/10/22 11:40:29;;;;;;;11.52;10.52;;;20.40;99.90;;;;;;5068346;28;20073;-66
2023/10/22 11:43:08;;;;;;;9.95;8.95;;;20.30;99.90;;;;;;5069388;28;20044;-67
2023/10/22 11:45:36;;;;;;;11.98;11.07;;;20.40;99.90;;;;;;5056152;28;20051;-66
2023/10/22 11:48:19;;;;;;;9.23;8.43;;;20.50;99.90;;;;;;5068405;28;20044;-64
2023/10/22 11:50:46;;;;;;;11.70;9.48;;;20.60;99.90;;;;;;5068849;28;20418;-62
2023/10/22 11:53:11;;;;;;;10.13;8.30;;;20.60;99.90;;;;;;5068781;28;21023;-62
2023/10/22 11:55:37;;;;;;;9.05;7.78;;;20.70;99.90;;;;;;5067547;28;20043;-63
2023/10/22 11:58:04;;;;;;;10.65;9.75;;;20.80;99.90;;;;;;5068147;28;20316;-63
2023/10/22 12:00:29;;;;;;;9.05;8.15;;;20.70;99.90;;;;;;5065568;28;20076;-63
2023/10/22 12:02:55;;;;;;;7.70;7.00;;;20.80;99.90;;;;;;5067700;28;20083;-62
2023/10/22 12:05:21;;;;;;;8.23;7.45;;;20.60;99.90;;;;;;5068384;28;20036;-62
2023/10/22 12:07:47;;;;;;;8.32;7.50;;;20.70;99.90;;;;;;5068513;28;20146;-63
2023/10/22 12:10:12;;;;;;;7.07;6.38;;;20.90;99.90;;;;;;5068825;28;20044;-62
2023/10/22 12:12:38;;;;;;;6.68;6.07;;;20.70;99.90;;;;;;5068313;28;20128;-63
2023/10/22 12:15:04;;;;;;;8.80;6.40;;;20.60;99.90;;;;;;5068260;28;20039;-63
2023/10/22 12:17:31;;;;;;;7.45;6.63;;;20.50;99.90;;;;;;5067316;28;20379;-63
2023/10/22 12:19:56;;;;;;;8.65;7.50;;;20.50;99.90;;;;;;5059425;28;20049;-62
2023/10/22 12:22:22;;;;;;;9.50;7.65;;;20.70;99.90;;;;;;5067631;28;20086;-62
2023/10/22 12:24:51;;;;;;;8.70;7.85;;;20.40;99.90;;;;;;5066651;28;20585;-62
2023/10/22 12:27:16;;;;;;;9.30;7.90;;;20.40;99.90;;;;;;5067084;28;20117;-63
2023/10/22 12:29:42;;;;;;;8.48;7.68;;;20.30;99.90;;;;;;5063799;28;20044;-63